createdAt,value
2022-07-28T00:01:12.209Z,100.00
2022-07-28T00:03:56.691Z,100.00
2022-07-28T00:06:30.673Z,100.00
2022-07-28T00:09:08.577Z,100.00
2022-07-28T00:11:51.451Z,100.00
2022-07-28T00:14:23.939Z,100.00
2022-07-28T00:16:53.639Z,100.00
2022-07-28T00:19:27.663Z,100.00
2022-07-28T00:21:58.808Z,100.00
2022-07-28T00:24:27.484Z,100.00
2022-07-28T00:26:55.758Z,100.00
2022-07-28T00:29:49.329Z,100.00
2022-07-28T00:32:22.979Z,100.00
2022-07-28T00:35:08.125Z,100.00
2022-07-28T00:37:57.374Z,100.00
2022-07-28T00:40:56.353Z,100.00
2022-07-28T00:43:30.688Z,100.00
2022-07-28T00:46:02.296Z,100.00
2022-07-28T00:48:36.473Z,100.00
2022-07-28T00:51:09.782Z,100.00
2022-07-28T00:53:41.082Z,100.00
2022-07-28T00:56:32.023Z,100.00
2022-07-28T00:59:00.680Z,100.00
2022-07-28T01:01:29.116Z,100.00
2022-07-28T01:04:06.187Z,100.00
2022-07-28T01:06:48.177Z,100.00
2022-07-28T01:09:21.924Z,100.00
2022-07-28T01:11:59.312Z,100.00
2022-07-28T01:14:52.458Z,100.00
2022-07-28T01:18:01.552Z,100.00
2022-07-28T01:20:58.219Z,100.00
2022-07-28T01:23:32.432Z,100.00
2022-07-28T01:26:27.924Z,100.00
2022-07-28T01:29:46.547Z,100.00
2022-07-28T01:32:22.343Z,100.00
2022-07-28T01:35:12.152Z,100.00
2022-07-28T01:37:53.723Z,100.00
2022-07-28T01:40:27.379Z,100.00
2022-07-28T01:43:01.831Z,100.00
2022-07-28T01:45:35.214Z,100.00
2022-07-28T01:48:29.906Z,100.00
2022-07-28T01:50:58.785Z,100.00
2022-07-28T01:53:37.794Z,100.00
2022-07-28T01:56:10.844Z,100.00
2022-07-28T01:58:45.342Z,100.00
2022-07-28T02:01:14.941Z,100.00
2022-07-28T02:03:45.838Z,100.00
2022-07-28T02:06:17.244Z,100.00
2022-07-28T02:08:47.161Z,100.00
2022-07-28T02:11:36.369Z,100.00
2022-07-28T02:14:05.128Z,100.00
2022-07-28T02:16:33.658Z,100.00
2022-07-28T02:19:14.042Z,100.00
2022-07-28T02:21:47.819Z,100.00
2022-07-28T02:24:19.504Z,100.00
2022-07-28T02:26:53.670Z,100.00
2022-07-28T02:29:49.240Z,100.00
2022-07-28T02:33:02.695Z,100.00
2022-07-28T02:35:39.562Z,100.00
2022-07-28T02:38:29.973Z,100.00
2022-07-28T02:41:08.700Z,100.00
2022-07-28T02:43:49.383Z,100.00
2022-07-28T02:46:38.298Z,100.00
2022-07-28T02:49:14.343Z,100.00
2022-07-28T02:51:43.792Z,100.00
2022-07-28T02:54:27.232Z,100.00
2022-07-28T02:57:05.263Z,100.00
2022-07-28T02:59:36.617Z,100.00
2022-07-28T03:02:05.649Z,100.00
2022-07-28T03:04:55.128Z,100.00
2022-07-28T03:07:23.787Z,100.00
2022-07-28T03:09:52.740Z,100.00
2022-07-28T03:12:21.573Z,100.00
2022-07-28T03:14:50.086Z,100.00
2022-07-28T03:17:22.598Z,100.00
2022-07-28T03:19:54.328Z,100.00
2022-07-28T03:22:22.515Z,100.00
2022-07-28T03:24:53.330Z,100.00
2022-07-28T03:27:37.044Z,100.00
2022-07-28T03:30:11.685Z,100.00
2022-07-28T03:32:54.109Z,100.00
2022-07-28T03:35:31.586Z,100.00
2022-07-28T03:38:05.816Z,100.00
2022-07-28T03:40:41.190Z,100.00
2022-07-28T03:43:21.097Z,100.00
2022-07-28T03:45:50.504Z,100.00
2022-07-28T03:48:21.658Z,100.00
2022-07-28T03:50:49.838Z,100.00
2022-07-28T03:53:25.851Z,100.00
2022-07-28T03:55:54.503Z,100.00
2022-07-28T03:58:28.930Z,100.00
2022-07-28T04:01:03.145Z,100.00
2022-07-28T04:03:43.228Z,99.77
2022-07-28T04:06:13.651Z,96.44
2022-07-28T04:08:42.522Z,89.37
2022-07-28T04:11:16.281Z,81.19
2022-07-28T04:13:50.075Z,84.77
2022-07-28T04:16:18.639Z,89.91
2022-07-28T04:19:10.276Z,89.72
2022-07-28T04:21:43.250Z,93.78
2022-07-28T04:24:11.974Z,99.89
2022-07-28T04:26:50.705Z,100.00
2022-07-28T04:29:27.359Z,100.00
2022-07-28T04:31:58.806Z,100.00
2022-07-28T04:34:28.192Z,100.00
2022-07-28T04:36:59.640Z,100.00
2022-07-28T04:39:30.080Z,100.00
2022-07-28T04:41:58.388Z,100.00
2022-07-28T04:44:28.971Z,100.00
2022-07-28T04:46:57.075Z,100.00
2022-07-28T04:49:26.013Z,100.00
2022-07-28T04:52:04.039Z,100.00
2022-07-28T04:54:35.576Z,100.00
2022-07-28T04:57:08.232Z,100.00
2022-07-28T04:59:40.838Z,100.00
2022-07-28T05:02:18.592Z,100.00
2022-07-28T05:04:52.515Z,100.00
2022-07-28T05:07:28.027Z,100.00
2022-07-28T05:10:02.333Z,100.00
2022-07-28T05:12:30.645Z,100.00
2022-07-28T05:14:59.624Z,100.00
2022-07-28T05:17:30.241Z,100.00
2022-07-28T05:20:00.701Z,100.00
2022-07-28T05:23:00.041Z,100.00
2022-07-28T05:25:31.010Z,100.00
2022-07-28T05:27:59.442Z,100.00
2022-07-28T05:30:37.115Z,100.00
2022-07-28T05:33:09.475Z,100.00
2022-07-28T05:35:48.650Z,100.00
2022-07-28T05:38:17.709Z,100.00
2022-07-28T05:40:58.891Z,100.00
2022-07-28T05:43:30.586Z,100.00
2022-07-28T05:45:59.085Z,100.00
2022-07-28T05:48:45.503Z,100.00
2022-07-28T05:51:38.408Z,100.00
2022-07-28T05:54:21.522Z,100.00
2022-07-28T05:56:52.637Z,100.00
2022-07-28T05:59:30.233Z,100.00
2022-07-28T06:02:04.512Z,100.00
2022-07-28T06:04:35.265Z,100.00
2022-07-28T06:07:11.224Z,100.00
2022-07-28T06:09:45.120Z,100.00
2022-07-28T06:12:27.672Z,100.00
2022-07-28T06:14:58.215Z,100.00
2022-07-28T06:17:31.900Z,100.00
2022-07-28T06:20:23.912Z,100.00
2022-07-28T06:22:54.952Z,100.00
2022-07-28T06:25:28.587Z,100.00
2022-07-28T06:28:01.144Z,100.00
2022-07-28T06:30:44.585Z,100.00
2022-07-28T06:33:17.300Z,100.00
2022-07-28T06:35:57.157Z,100.00
2022-07-28T06:38:31.355Z,100.00
2022-07-28T06:41:12.980Z,100.00
2022-07-28T06:43:52.311Z,100.00
2022-07-28T06:46:23.666Z,100.00
2022-07-28T06:49:03.157Z,97.15
2022-07-28T06:51:39.714Z,96.02
2022-07-28T06:54:18.554Z,97.30
2022-07-28T06:57:01.098Z,92.85
2022-07-28T06:59:31.788Z,85.18
2022-07-28T07:02:02.625Z,82.93
2022-07-28T07:04:54.691Z,86.69
2022-07-28T07:07:23.853Z,89.27
2022-07-28T07:09:58.013Z,81.52
2022-07-28T07:12:29.096Z,81.30
2022-07-28T07:15:06.742Z,81.82
2022-07-28T07:17:37.605Z,79.99
2022-07-28T07:20:13.689Z,80.15
2022-07-28T07:23:14.631Z,79.28
2022-07-28T07:25:48.529Z,69.07
2022-07-28T07:28:16.832Z,69.49
2022-07-28T07:30:51.255Z,61.69
2022-07-28T07:33:31.822Z,60.01
2022-07-28T07:36:27.177Z,57.36
2022-07-28T07:38:56.218Z,56.71
2022-07-28T07:41:30.328Z,54.73
2022-07-28T07:44:12.623Z,53.56
2022-07-28T07:47:21.150Z,52.30
2022-07-28T07:49:49.725Z,49.54
2022-07-28T07:52:58.252Z,49.98
2022-07-28T07:56:30.172Z,48.68
2022-07-28T07:59:38.864Z,48.88
2022-07-28T08:02:09.677Z,47.53
2022-07-28T08:05:11.192Z,46.75
2022-07-28T08:08:20.377Z,46.77
2022-07-28T08:10:54.047Z,45.86
2022-07-28T08:13:29.738Z,47.09
2022-07-28T08:16:01.818Z,45.82
2022-07-28T08:18:47.470Z,44.66
2022-07-28T08:21:21.317Z,45.53
2022-07-28T08:24:00.814Z,44.80
2022-07-28T08:26:52.985Z,44.83
2022-07-28T08:30:09.510Z,44.30
2022-07-28T08:32:56.366Z,44.82
2022-07-28T08:36:04.284Z,43.38
2022-07-28T08:38:42.497Z,42.87
2022-07-28T08:41:20.414Z,41.43
2022-07-28T08:43:56.563Z,42.41
2022-07-28T08:47:05.325Z,42.78
2022-07-28T08:50:04.762Z,43.00
2022-07-28T08:53:06.034Z,42.83
2022-07-28T08:55:37.745Z,41.91
2022-07-28T08:58:26.853Z,42.97
2022-07-28T09:01:19.166Z,41.32
2022-07-28T09:03:47.893Z,40.40
2022-07-28T09:07:04.430Z,40.78
2022-07-28T09:09:49.912Z,41.29
2022-07-28T09:12:36.027Z,40.46
2022-07-28T09:15:13.579Z,40.67
2022-07-28T09:17:55.695Z,41.37
2022-07-28T09:20:45.269Z,41.55
2022-07-28T09:23:43.432Z,41.85
2022-07-28T09:26:27.930Z,41.93
2022-07-28T09:29:13.184Z,42.34
2022-07-28T09:31:56.940Z,42.00
2022-07-28T09:34:41.174Z,39.51
2022-07-28T09:38:20.317Z,39.98
2022-07-28T09:41:52.375Z,40.26
2022-07-28T09:45:21.352Z,40.67
2022-07-28T09:48:42.264Z,40.00
2022-07-28T09:51:23.461Z,40.24
2022-07-28T09:53:55.601Z,39.48
2022-07-28T09:57:24.254Z,41.02
2022-07-28T10:00:47.676Z,40.86
2022-07-28T10:03:51.544Z,40.37
2022-07-28T10:06:51.627Z,40.21
2022-07-28T10:09:44.599Z,41.02
2022-07-28T10:13:16.354Z,42.55
2022-07-28T10:16:11.824Z,43.43
2022-07-28T10:19:51.929Z,41.57
2022-07-28T10:23:34.288Z,41.77
2022-07-28T10:27:51.687Z,41.33
2022-07-28T10:31:15.779Z,42.22
2022-07-28T10:34:02.699Z,41.90
2022-07-28T10:36:49.089Z,41.80
2022-07-28T10:39:44.595Z,38.78
2022-07-28T10:42:28.489Z,39.69
2022-07-28T10:45:55.041Z,39.32
2022-07-28T10:48:40.719Z,38.10
2022-07-28T10:51:30.893Z,37.99
2022-07-28T10:54:12.942Z,37.54
2022-07-28T10:57:31.793Z,37.87
2022-07-28T11:00:37.856Z,38.17
2022-07-28T11:04:29.024Z,38.71
2022-07-28T11:07:40.710Z,39.03
2022-07-28T11:10:23.213Z,36.92
2022-07-28T11:13:04.016Z,37.67
2022-07-28T11:15:45.075Z,37.53
2022-07-28T11:18:34.306Z,39.18
2022-07-28T11:21:54.262Z,39.26
2022-07-28T11:25:20.585Z,39.52
2022-07-28T11:28:00.397Z,39.53
2022-07-28T11:31:29.879Z,37.59
2022-07-28T11:34:52.009Z,36.41
2022-07-28T11:38:01.445Z,37.63
2022-07-28T11:41:33.523Z,37.61
2022-07-28T11:45:09.070Z,37.15
2022-07-28T11:48:18.303Z,37.83
2022-07-28T11:51:38.776Z,38.12
2022-07-28T11:54:39.726Z,36.79
2022-07-28T11:58:00.610Z,36.46
2022-07-28T12:01:04.913Z,37.27
2022-07-28T12:05:09.190Z,37.87
2022-07-28T12:08:21.077Z,38.00
2022-07-28T12:11:13.145Z,37.52
2022-07-28T12:14:04.954Z,37.47
2022-07-28T12:17:15.153Z,37.60
2022-07-28T12:19:47.285Z,37.58
2022-07-28T12:23:44.274Z,36.64
2022-07-28T12:26:40.728Z,36.98
2022-07-28T12:30:15.864Z,35.71
2022-07-28T12:33:32.106Z,37.08
2022-07-28T12:36:45.055Z,35.20
2022-07-28T12:40:11.293Z,36.07
2022-07-28T12:43:04.351Z,34.36
2022-07-28T12:46:12.464Z,34.19
2022-07-28T12:49:56.333Z,35.13
2022-07-28T12:53:13.364Z,34.17
2022-07-28T12:56:54.617Z,33.18
2022-07-28T13:00:19.923Z,32.22
2022-07-28T13:04:26.003Z,32.71
2022-07-28T13:08:21.465Z,31.93
2022-07-28T13:11:51.228Z,31.70
2022-07-28T13:15:14.313Z,31.73
2022-07-28T13:18:45.135Z,32.69
2022-07-28T13:22:09.172Z,33.80
2022-07-28T13:25:02.019Z,34.17
2022-07-28T13:28:00.456Z,34.78
2022-07-28T13:31:43.163Z,33.72
2022-07-28T13:34:43.802Z,33.63
2022-07-28T13:37:32.857Z,33.74
2022-07-28T13:40:31.885Z,32.78
2022-07-28T13:43:21.928Z,33.22
2022-07-28T13:46:24.642Z,33.85
2022-07-28T13:49:02.547Z,32.73
2022-07-28T13:52:12.875Z,33.70
2022-07-28T13:54:55.385Z,34.15
2022-07-28T13:57:58.259Z,34.40
2022-07-28T14:00:47.489Z,33.26
2022-07-28T14:03:56.120Z,32.88
2022-07-28T14:07:35.409Z,31.75
2022-07-28T14:10:35.814Z,32.32
2022-07-28T14:13:44.269Z,31.43
2022-07-28T14:17:43.608Z,30.59
2022-07-28T14:20:21.455Z,31.20
2022-07-28T14:23:17.031Z,30.54
2022-07-28T14:26:33.087Z,29.95
2022-07-28T14:29:00.000Z,29.08
2022-07-28T14:32:28.821Z,28.67
2022-07-28T14:35:20.947Z,29.16
2022-07-28T14:39:01.191Z,30.08
2022-07-28T14:42:21.963Z,30.28
2022-07-28T14:46:01.555Z,30.44
2022-07-28T14:49:31.267Z,30.66
2022-07-28T14:52:30.966Z,31.17
2022-07-28T14:55:55.926Z,31.49
2022-07-28T14:59:45.196Z,31.42
2022-07-28T15:03:05.620Z,30.46
2022-07-28T15:06:23.586Z,30.08
2022-07-28T15:09:52.460Z,29.81
2022-07-28T15:12:44.287Z,31.52
2022-07-28T15:15:26.707Z,31.97
2022-07-28T15:18:28.335Z,32.39
2022-07-28T15:21:29.297Z,32.93
2022-07-28T15:24:29.413Z,33.56
2022-07-28T15:27:33.767Z,33.16
2022-07-28T15:30:06.129Z,34.05
2022-07-28T15:33:01.894Z,34.83
2022-07-28T15:35:58.434Z,34.25
2022-07-28T15:38:37.532Z,34.74
2022-07-28T15:41:13.075Z,34.28
2022-07-28T15:44:01.633Z,34.60
2022-07-28T15:47:05.485Z,34.57
2022-07-28T15:50:00.162Z,35.22
2022-07-28T15:53:15.308Z,35.00
2022-07-28T15:55:51.671Z,34.88
2022-07-28T15:58:51.399Z,35.15
2022-07-28T16:01:29.991Z,34.48
2022-07-28T16:05:09.872Z,34.66
2022-07-28T16:07:45.214Z,34.60
2022-07-28T16:10:25.794Z,34.12
2022-07-28T16:14:06.153Z,33.69
2022-07-28T16:17:11.753Z,33.90
2022-07-28T16:20:51.270Z,33.50
2022-07-28T16:24:00.449Z,34.45
2022-07-28T16:27:42.044Z,34.09
2022-07-28T16:31:13.566Z,34.39
2022-07-28T16:34:58.710Z,33.49
2022-07-28T16:38:49.255Z,33.24
2022-07-28T16:42:11.281Z,33.17
2022-07-28T16:45:11.872Z,33.75
2022-07-28T16:48:24.113Z,33.49
2022-07-28T16:51:15.818Z,33.09
2022-07-28T16:54:18.025Z,33.37
2022-07-28T16:57:40.094Z,33.21
2022-07-28T17:01:03.745Z,34.08
2022-07-28T17:04:21.932Z,33.45
2022-07-28T17:07:47.722Z,34.77
2022-07-28T17:10:55.857Z,35.35
2022-07-28T17:14:08.862Z,34.92
2022-07-28T17:17:22.916Z,35.10
2022-07-28T17:20:00.354Z,35.19
2022-07-28T17:22:53.447Z,35.76
2022-07-28T17:27:32.541Z,36.15
2022-07-28T17:29:53.865Z,36.93
2022-07-28T17:33:02.477Z,36.85
2022-07-28T17:36:56.879Z,37.62
2022-07-28T17:40:21.339Z,38.06
2022-07-28T17:43:23.772Z,38.32
2022-07-28T17:46:36.828Z,38.82
2022-07-28T17:49:48.143Z,39.08
2022-07-28T17:53:10.229Z,39.21
2022-07-28T17:56:12.693Z,39.53
2022-07-28T17:59:16.602Z,39.79
2022-07-28T18:02:58.622Z,40.42
2022-07-28T18:06:46.319Z,41.54
2022-07-28T18:09:42.301Z,41.29
2022-07-28T18:13:22.341Z,41.76
2022-07-28T18:16:36.161Z,42.24
2022-07-28T18:19:54.906Z,43.37
2022-07-28T18:22:57.584Z,44.49
2022-07-28T18:26:22.418Z,45.29
2022-07-28T18:30:12.623Z,45.60
2022-07-28T18:33:52.201Z,46.10
2022-07-28T18:37:23.913Z,45.82
2022-07-28T18:40:25.130Z,46.64
2022-07-28T18:43:37.329Z,47.47
2022-07-28T18:47:00.130Z,48.19
2022-07-28T18:50:30.603Z,48.85
2022-07-28T18:53:58.406Z,49.70
2022-07-28T18:56:59.929Z,51.23
2022-07-28T18:59:59.002Z,52.06
2022-07-28T19:03:42.533Z,51.80
2022-07-28T19:06:57.096Z,51.18
2022-07-28T19:10:00.207Z,51.92
2022-07-28T19:13:40.460Z,52.54
2022-07-28T19:16:55.846Z,52.99
2022-07-28T19:20:24.775Z,54.46
2022-07-28T19:23:33.544Z,54.09
2022-07-28T19:27:22.643Z,55.09
2022-07-28T19:31:10.708Z,56.40
2022-07-28T19:35:00.697Z,59.52
2022-07-28T19:38:44.476Z,61.88
2022-07-28T19:42:36.144Z,61.80
2022-07-28T19:46:27.600Z,62.01
2022-07-28T19:50:22.458Z,63.48
2022-07-28T19:53:42.516Z,63.31
2022-07-28T19:57:34.150Z,65.18
2022-07-28T20:01:24.011Z,64.59
2022-07-28T20:05:13.013Z,64.82
2022-07-28T20:09:02.304Z,63.57
2022-07-28T20:12:51.474Z,64.42
2022-07-28T20:16:46.570Z,64.08
2022-07-28T20:20:36.030Z,65.33
2022-07-28T20:24:27.407Z,67.05
2022-07-28T20:28:17.492Z,68.59
2022-07-28T20:32:08.730Z,70.27
2022-07-28T20:36:01.997Z,72.49
2022-07-28T20:39:44.994Z,73.71
2022-07-28T20:43:01.145Z,72.58
2022-07-28T20:46:33.117Z,73.00
2022-07-28T20:50:16.764Z,70.88
2022-07-28T20:54:06.341Z,69.38
2022-07-28T20:57:19.732Z,69.65
2022-07-28T21:01:01.353Z,67.52
2022-07-28T21:04:33.487Z,66.09
2022-07-28T21:08:16.964Z,65.76
2022-07-28T21:11:50.712Z,65.98
2022-07-28T21:15:22.883Z,63.95
2022-07-28T21:19:13.038Z,63.64
2022-07-28T21:22:38.370Z,63.40
2022-07-28T21:25:45.910Z,63.40
2022-07-28T21:29:38.289Z,63.59
2022-07-28T21:33:07.411Z,63.87
2022-07-28T21:36:57.114Z,64.29
2022-07-28T21:40:46.697Z,64.36
2022-07-28T21:44:18.440Z,64.43
2022-07-28T21:48:07.587Z,64.93
2022-07-28T21:51:58.305Z,65.75
2022-07-28T21:55:37.749Z,66.20
2022-07-28T21:58:43.270Z,67.06
2022-07-28T22:02:17.239Z,67.54
2022-07-28T22:06:06.692Z,68.48
2022-07-28T22:09:45.658Z,69.37
2022-07-28T22:13:00.964Z,70.43
2022-07-28T22:16:05.928Z,71.17
2022-07-28T22:19:25.304Z,71.88
2022-07-28T22:23:29.184Z,72.77
2022-07-28T22:27:07.550Z,73.66
2022-07-28T22:30:36.622Z,74.09
2022-07-28T22:33:57.533Z,74.07
2022-07-28T22:37:50.162Z,74.36
2022-07-28T22:40:55.697Z,74.62
2022-07-28T22:44:45.965Z,74.71
2022-07-28T22:48:26.529Z,74.96
2022-07-28T22:52:04.891Z,75.28
2022-07-28T22:55:45.523Z,75.61
2022-07-28T22:59:17.100Z,75.97
2022-07-28T23:02:30.794Z,76.31
2022-07-28T23:06:11.994Z,76.84
2022-07-28T23:10:01.081Z,77.78
2022-07-28T23:13:07.480Z,79.30
2022-07-28T23:16:34.747Z,80.86
2022-07-28T23:20:03.359Z,81.60
2022-07-28T23:23:28.021Z,82.40
2022-07-28T23:26:36.974Z,83.20
2022-07-28T23:30:04.789Z,83.64
2022-07-28T23:33:54.659Z,83.85
2022-07-28T23:37:13.380Z,83.46
2022-07-28T23:40:44.774Z,83.46
2022-07-28T23:44:24.165Z,83.17
2022-07-28T23:48:02.555Z,83.73
2022-07-28T23:51:48.072Z,84.33
2022-07-28T23:55:02.827Z,85.35
2022-07-28T23:58:41.979Z,86.63
